Terminal Aerodrome Forecast
Issued by NWS

Home | Current Version | Previous Version | Text Only | Print | Product List | Glossary On
Versions: 1 2 3 4 5 6 7 8 9 10 11 12 13 14 15
452
FTUS42 KTBW 181720
TAFLAL
TAF
KLAL 181720Z 1818/1918 22005KT P6SM SCT030 SCT250
     FM182000 29004KT P6SM SCT040 SCT250
     FM190000 VRB03KT P6SM SCT250
     FM190500 VRB03KT 3SM BR BKN010
     FM190900 00000KT 1SM BR BKN005=

USA.gov is the U.S. government's official web portal to all federal, state and local government web resources and services.